Ragland, Alabama
Current Conditions -  °F | °C
As of 2:15 PM on Friday 31 Oct 2014 (Local Time) from KASN Reporting Station
Overcast Overcast  
Wind Chill: 60°   Ceiling: 5500
Heat Index: 60°   Visibility: 10mi
Dew Point: 46°   Wind: 5mph
Humidity: 61%   Direction: 290°WNW
Pressure: 29.95"   Gusts: NA
Location:  33.74°N, 86.16°W
Report Text: KASN 311915Z AUTO 29004KT 10SM OVC055 15/08 A2995 RMK AO2 T01540078
Loading
Personal Weather Stations






























Interactive Weather Map
Tropical Storm Tracking
New forecast layout! Learn more

10-Day Weather Forecast

Advertisements
Track Severe Weather on mobile